Our Location

Trim Flying Club is based at Weston Airport (EIWT).

Address

Dublin Weston Airport,
Backweston,
Leixlip,
County Kildare

Contact information for Weston

Phone: +353 (01) 6217300
Email: ops@westonairport.com
 
You can read more information on Weston from the IAA's aeronautical information package here.
  • Casement Aerodrome METER/TAF

    Casement Aerodrome is just south of Weston and has a regularly updated METAR and TAF which you can find below.

    Available data for EIME from the past 2 hours
    CASEMENT (MIL)
    Metar
    EIME 172200Z 24015KT 9999 FEW018 BKN030 14/10 Q1013

    22:00 UTC

    Wind: 240° 15kt

    Visibility: 9999 m

    Sky: FEW 1800 ft

    Temp: 14 deg C / 57.2 deg F

    Dewpoint: 10 deg C / 50 deg F

    Pressure: 1013 hPa

    TAF
    TAF EIME 172000Z 1721/1806 24013KT 9999 FEW015 BKN025 PROB40 TEMPO 1721/1722 26018G28KT PROB30 TEMPO 1722/1803 BKN014